sensor_id;sensor_type;location;lat;lon;timestamp;P1;durP1;ratioP1;P2;durP2;ratioP2
72573;SDS011;60603;52.548;13.420;2023-04-06T00:01:37;7.80;;;4.60;;
72573;SDS011;60603;52.548;13.420;2023-04-06T00:04:03;9.40;;;4.50;;
72573;SDS011;60603;52.548;13.420;2023-04-06T00:06:29;11.70;;;4.95;;
72573;SDS011;60603;52.548;13.420;2023-04-06T00:08:55;9.07;;;4.75;;
72573;SDS011;60603;52.548;13.420;2023-04-06T00:11:21;12.48;;;5.60;;
72573;SDS011;60603;52.548;13.420;2023-04-06T00:13:47;8.98;;;4.05;;
72573;SDS011;60603;52.548;13.420;2023-04-06T00:16:13;7.57;;;4.00;;
72573;SDS011;60603;52.548;13.420;2023-04-06T00:18:39;11.25;;;4.25;;
72573;SDS011;60603;52.548;13.420;2023-04-06T00:21:05;8.13;;;4.65;;
72573;SDS011;60603;52.548;13.420;2023-04-06T00:23:30;9.00;;;4.40;;
72573;SDS011;60603;52.548;13.420;2023-04-06T00:25:56;8.90;;;4.70;;
72573;SDS011;60603;52.548;13.420;2023-04-06T00:28:22;7.45;;;4.15;;
72573;SDS011;60603;52.548;13.420;2023-04-06T00:30:51;7.93;;;4.22;;
72573;SDS011;60603;52.548;13.420;2023-04-06T00:33:18;8.02;;;4.13;;
72573;SDS011;60603;52.548;13.420;2023-04-06T00:35:45;8.30;;;4.20;;
72573;SDS011;60603;52.548;13.420;2023-04-06T00:38:11;9.57;;;4.10;;
72573;SDS011;60603;52.548;13.420;2023-04-06T00:40:37;9.13;;;4.05;;
72573;SDS011;60603;52.548;13.420;2023-04-06T00:43:05;9.63;;;4.30;;
72573;SDS011;60603;52.548;13.420;2023-04-06T00:45:31;7.43;;;3.58;;
72573;SDS011;60603;52.548;13.420;2023-04-06T00:47:58;10.30;;;4.50;;
72573;SDS011;60603;52.548;13.420;2023-04-06T00:50:24;10.38;;;4.72;;
72573;SDS011;60603;52.548;13.420;2023-04-06T00:52:50;10.40;;;4.15;;
72573;SDS011;60603;52.548;13.420;2023-04-06T00:55:16;8.38;;;3.78;;
72573;SDS011;60603;52.548;13.420;2023-04-06T00:57:42;8.25;;;3.97;;
72573;SDS011;60603;52.548;13.420;2023-04-06T01:00:08;8.57;;;3.70;;
72573;SDS011;60603;52.548;13.420;2023-04-06T01:02:36;9.25;;;3.75;;
72573;SDS011;60603;52.548;13.420;2023-04-06T01:05:02;8.65;;;3.80;;
72573;SDS011;60603;52.548;13.420;2023-04-06T01:07:28;7.93;;;3.13;;
72573;SDS011;60603;52.548;13.420;2023-04-06T01:09:54;8.00;;;3.55;;
72573;SDS011;60603;52.548;13.420;2023-04-06T01:12:20;8.25;;;3.35;;
72573;SDS011;60603;52.548;13.420;2023-04-06T01:14:46;7.25;;;3.40;;
72573;SDS011;60603;52.548;13.420;2023-04-06T01:17:11;7.40;;;3.30;;
72573;SDS011;60603;52.548;13.420;2023-04-06T01:19:37;7.28;;;3.70;;
72573;SDS011;60603;52.548;13.420;2023-04-06T01:22:05;7.65;;;3.75;;
72573;SDS011;60603;52.548;13.420;2023-04-06T01:24:31;8.45;;;3.38;;
72573;SDS011;60603;52.548;13.420;2023-04-06T01:26:58;7.40;;;3.55;;
72573;SDS011;60603;52.548;13.420;2023-04-06T01:29:23;5.53;;;2.90;;
72573;SDS011;60603;52.548;13.420;2023-04-06T01:31:49;8.85;;;3.22;;
72573;SDS011;60603;52.548;13.420;2023-04-06T01:34:15;6.07;;;3.13;;
72573;SDS011;60603;52.548;13.420;2023-04-06T01:36:41;6.93;;;3.20;;
72573;SDS011;60603;52.548;13.420;2023-04-06T01:39:07;6.90;;;3.38;;
72573;SDS011;60603;52.548;13.420;2023-04-06T01:41:33;7.82;;;3.33;;
72573;SDS011;60603;52.548;13.420;2023-04-06T01:43:59;6.20;;;3.13;;
72573;SDS011;60603;52.548;13.420;2023-04-06T01:46:25;8.50;;;3.65;;
72573;SDS011;60603;52.548;13.420;2023-04-06T01:48:51;6.32;;;3.00;;
72573;SDS011;60603;52.548;13.420;2023-04-06T01:51:17;7.30;;;3.15;;
72573;SDS011;60603;52.548;13.420;2023-04-06T01:53:43;6.55;;;3.15;;
72573;SDS011;60603;52.548;13.420;2023-04-06T01:56:09;8.10;;;3.40;;
72573;SDS011;60603;52.548;13.420;2023-04-06T01:58:35;6.28;;;3.20;;
72573;SDS011;60603;52.548;13.420;2023-04-06T02:01:00;8.30;;;3.30;;
72573;SDS011;60603;52.548;13.420;2023-04-06T02:03:26;8.00;;;3.08;;
72573;SDS011;60603;52.548;13.420;2023-04-06T02:05:52;6.40;;;3.25;;
72573;SDS011;60603;52.548;13.420;2023-04-06T02:08:18;8.48;;;3.60;;
72573;SDS011;60603;52.548;13.420;2023-04-06T02:10:43;9.65;;;3.67;;
72573;SDS011;60603;52.548;13.420;2023-04-06T02:13:09;8.02;;;3.45;;
72573;SDS011;60603;52.548;13.420;2023-04-06T02:15:35;10.75;;;3.92;;
72573;SDS011;60603;52.548;13.420;2023-04-06T02:18:01;6.18;;;3.13;;
72573;SDS011;60603;52.548;13.420;2023-04-06T02:20:26;8.40;;;3.65;;
72573;SDS011;60603;52.548;13.420;2023-04-06T02:22:52;7.72;;;3.97;;
72573;SDS011;60603;52.548;13.420;2023-04-06T02:25:18;10.05;;;4.30;;
72573;SDS011;60603;52.548;13.420;2023-04-06T02:27:44;5.68;;;3.53;;
72573;SDS011;60603;52.548;13.420;2023-04-06T02:30:09;9.57;;;3.92;;
72573;SDS011;60603;52.548;13.420;2023-04-06T02:32:36;9.52;;;3.78;;
72573;SDS011;60603;52.548;13.420;2023-04-06T02:35:01;7.07;;;3.63;;
72573;SDS011;60603;52.548;13.420;2023-04-06T02:37:27;6.95;;;3.70;;
72573;SDS011;60603;52.548;13.420;2023-04-06T02:39:53;7.50;;;3.88;;
72573;SDS011;60603;52.548;13.420;2023-04-06T02:42:19;8.75;;;3.83;;
72573;SDS011;60603;52.548;13.420;2023-04-06T02:44:45;7.40;;;4.28;;
72573;SDS011;60603;52.548;13.420;2023-04-06T02:47:10;9.05;;;4.40;;
72573;SDS011;60603;52.548;13.420;2023-04-06T02:49:36;11.20;;;4.25;;
72573;SDS011;60603;52.548;13.420;2023-04-06T02:52:02;6.75;;;3.65;;
72573;SDS011;60603;52.548;13.420;2023-04-06T02:54:28;8.82;;;4.25;;
72573;SDS011;60603;52.548;13.420;2023-04-06T02:56:54;7.90;;;4.15;;
72573;SDS011;60603;52.548;13.420;2023-04-06T02:59:20;11.45;;;4.03;;
72573;SDS011;60603;52.548;13.420;2023-04-06T03:01:45;9.70;;;3.92;;
72573;SDS011;60603;52.548;13.420;2023-04-06T03:04:11;6.93;;;3.90;;
72573;SDS011;60603;52.548;13.420;2023-04-06T03:06:37;10.02;;;4.82;;
72573;SDS011;60603;52.548;13.420;2023-04-06T03:09:03;9.70;;;4.50;;
72573;SDS011;60603;52.548;13.420;2023-04-06T03:11:28;10.38;;;5.10;;
72573;SDS011;60603;52.548;13.420;2023-04-06T03:13:54;9.45;;;4.93;;
72573;SDS011;60603;52.548;13.420;2023-04-06T03:16:20;8.88;;;4.80;;
72573;SDS011;60603;52.548;13.420;2023-04-06T03:18:46;10.35;;;5.22;;
72573;SDS011;60603;52.548;13.420;2023-04-06T03:21:13;11.13;;;5.22;;
72573;SDS011;60603;52.548;13.420;2023-04-06T03:23:40;10.32;;;4.97;;
72573;SDS011;60603;52.548;13.420;2023-04-06T03:26:06;10.82;;;5.10;;
72573;SDS011;60603;52.548;13.420;2023-04-06T03:28:32;10.45;;;5.03;;
72573;SDS011;60603;52.548;13.420;2023-04-06T03:30:58;11.38;;;5.80;;
72573;SDS011;60603;52.548;13.420;2023-04-06T03:33:24;12.57;;;6.30;;
72573;SDS011;60603;52.548;13.420;2023-04-06T03:35:52;11.50;;;6.13;;
72573;SDS011;60603;52.548;13.420;2023-04-06T03:38:18;10.05;;;5.30;;
72573;SDS011;60603;52.548;13.420;2023-04-06T03:40:44;12.00;;;6.18;;
72573;SDS011;60603;52.548;13.420;2023-04-06T03:43:10;9.88;;;5.47;;
72573;SDS011;60603;52.548;13.420;2023-04-06T03:45:36;13.85;;;7.00;;
72573;SDS011;60603;52.548;13.420;2023-04-06T03:48:02;10.90;;;6.07;;
72573;SDS011;60603;52.548;13.420;2023-04-06T03:50:28;11.70;;;5.78;;
72573;SDS011;60603;52.548;13.420;2023-04-06T03:52:54;10.00;;;5.40;;
72573;SDS011;60603;52.548;13.420;2023-04-06T03:55:20;11.18;;;6.40;;
72573;SDS011;60603;52.548;13.420;2023-04-06T03:57:46;11.95;;;5.82;;
72573;SDS011;60603;52.548;13.420;2023-04-06T04:00:12;11.25;;;6.75;;
72573;SDS011;60603;52.548;13.420;2023-04-06T04:02:38;10.32;;;6.35;;
72573;SDS011;60603;52.548;13.420;2023-04-06T04:05:06;10.70;;;6.07;;
72573;SDS011;60603;52.548;13.420;2023-04-06T04:07:31;13.30;;;7.05;;
72573;SDS011;60603;52.548;13.420;2023-04-06T04:09:57;11.05;;;6.15;;
72573;SDS011;60603;52.548;13.420;2023-04-06T04:12:23;12.80;;;6.38;;
72573;SDS011;60603;52.548;13.420;2023-04-06T04:14:49;14.82;;;6.30;;
72573;SDS011;60603;52.548;13.420;2023-04-06T04:17:15;12.50;;;7.40;;
72573;SDS011;60603;52.548;13.420;2023-04-06T04:19:41;12.75;;;5.80;;
72573;SDS011;60603;52.548;13.420;2023-04-06T04:22:07;14.77;;;7.18;;
72573;SDS011;60603;52.548;13.420;2023-04-06T04:24:33;10.40;;;6.43;;
72573;SDS011;60603;52.548;13.420;2023-04-06T04:26:59;18.77;;;7.03;;
72573;SDS011;60603;52.548;13.420;2023-04-06T04:29:26;14.13;;;7.03;;
72573;SDS011;60603;52.548;13.420;2023-04-06T04:31:52;10.23;;;5.97;;
72573;SDS011;60603;52.548;13.420;2023-04-06T04:34:18;10.80;;;6.07;;
72573;SDS011;60603;52.548;13.420;2023-04-06T04:36:50;11.75;;;6.43;;
72573;SDS011;60603;52.548;13.420;2023-04-06T04:39:16;12.57;;;7.10;;
72573;SDS011;60603;52.548;13.420;2023-04-06T04:41:42;10.93;;;6.55;;
72573;SDS011;60603;52.548;13.420;2023-04-06T04:44:08;11.75;;;6.47;;
72573;SDS011;60603;52.548;13.420;2023-04-06T04:46:33;10.93;;;6.55;;
72573;SDS011;60603;52.548;13.420;2023-04-06T04:48:59;12.23;;;6.10;;
72573;SDS011;60603;52.548;13.420;2023-04-06T04:51:25;12.85;;;7.22;;
72573;SDS011;60603;52.548;13.420;2023-04-06T04:53:51;12.25;;;6.07;;
72573;SDS011;60603;52.548;13.420;2023-04-06T04:56:16;12.27;;;6.65;;
72573;SDS011;60603;52.548;13.420;2023-04-06T04:58:42;17.02;;;7.30;;
72573;SDS011;60603;52.548;13.420;2023-04-06T05:01:08;13.40;;;6.72;;
72573;SDS011;60603;52.548;13.420;2023-04-06T05:03:34;15.35;;;6.05;;
72573;SDS011;60603;52.548;13.420;2023-04-06T05:06:03;13.68;;;7.30;;
72573;SDS011;60603;52.548;13.420;2023-04-06T05:08:30;13.95;;;7.57;;
72573;SDS011;60603;52.548;13.420;2023-04-06T05:10:55;14.95;;;6.65;;
72573;SDS011;60603;52.548;13.420;2023-04-06T05:13:21;14.25;;;6.93;;
72573;SDS011;60603;52.548;13.420;2023-04-06T05:15:47;12.75;;;7.55;;
72573;SDS011;60603;52.548;13.420;2023-04-06T05:18:13;10.80;;;6.65;;
72573;SDS011;60603;52.548;13.420;2023-04-06T05:20:39;13.88;;;7.45;;
72573;SDS011;60603;52.548;13.420;2023-04-06T05:23:04;11.52;;;6.93;;
72573;SDS011;60603;52.548;13.420;2023-04-06T05:25:30;10.90;;;6.28;;
72573;SDS011;60603;52.548;13.420;2023-04-06T05:27:57;12.38;;;7.20;;
72573;SDS011;60603;52.548;13.420;2023-04-06T05:30:23;12.15;;;6.72;;
72573;SDS011;60603;52.548;13.420;2023-04-06T05:32:49;11.52;;;6.20;;
72573;SDS011;60603;52.548;13.420;2023-04-06T05:35:15;10.23;;;5.97;;
72573;SDS011;60603;52.548;13.420;2023-04-06T05:37:42;13.38;;;6.38;;
72573;SDS011;60603;52.548;13.420;2023-04-06T05:40:08;17.13;;;6.22;;
72573;SDS011;60603;52.548;13.420;2023-04-06T05:42:38;10.63;;;6.40;;
72573;SDS011;60603;52.548;13.420;2023-04-06T05:45:06;9.13;;;5.40;;
72573;SDS011;60603;52.548;13.420;2023-04-06T05:47:32;11.27;;;6.30;;
72573;SDS011;60603;52.548;13.420;2023-04-06T05:49:58;11.73;;;5.50;;
72573;SDS011;60603;52.548;13.420;2023-04-06T05:52:25;10.15;;;5.00;;
72573;SDS011;60603;52.548;13.420;2023-04-06T05:54:51;10.30;;;5.32;;
72573;SDS011;60603;52.548;13.420;2023-04-06T05:57:17;8.77;;;5.10;;
72573;SDS011;60603;52.548;13.420;2023-04-06T05:59:44;10.43;;;4.70;;
72573;SDS011;60603;52.548;13.420;2023-04-06T06:02:10;8.68;;;4.75;;
72573;SDS011;60603;52.548;13.420;2023-04-06T06:04:36;10.60;;;5.53;;
72573;SDS011;60603;52.548;13.420;2023-04-06T06:07:02;9.13;;;4.95;;
72573;SDS011;60603;52.548;13.420;2023-04-06T06:09:27;7.55;;;4.68;;
72573;SDS011;60603;52.548;13.420;2023-04-06T06:11:53;9.02;;;5.75;;
72573;SDS011;60603;52.548;13.420;2023-04-06T06:14:19;7.53;;;4.63;;
72573;SDS011;60603;52.548;13.420;2023-04-06T06:16:45;9.52;;;5.20;;
72573;SDS011;60603;52.548;13.420;2023-04-06T06:19:11;9.45;;;5.72;;
72573;SDS011;60603;52.548;13.420;2023-04-06T06:21:36;8.70;;;4.75;;
72573;SDS011;60603;52.548;13.420;2023-04-06T06:24:02;8.10;;;5.00;;
72573;SDS011;60603;52.548;13.420;2023-04-06T06:26:28;9.30;;;5.25;;
72573;SDS011;60603;52.548;13.420;2023-04-06T06:28:54;12.43;;;5.35;;
72573;SDS011;60603;52.548;13.420;2023-04-06T06:31:20;8.85;;;4.82;;
72573;SDS011;60603;52.548;13.420;2023-04-06T06:33:48;9.20;;;5.10;;
72573;SDS011;60603;52.548;13.420;2023-04-06T06:36:19;8.70;;;4.93;;
72573;SDS011;60603;52.548;13.420;2023-04-06T06:38:45;10.65;;;5.22;;
72573;SDS011;60603;52.548;13.420;2023-04-06T06:41:11;12.60;;;5.28;;
72573;SDS011;60603;52.548;13.420;2023-04-06T06:43:37;9.25;;;5.10;;
72573;SDS011;60603;52.548;13.420;2023-04-06T06:46:03;9.27;;;5.15;;
72573;SDS011;60603;52.548;13.420;2023-04-06T06:48:29;11.85;;;5.43;;
72573;SDS011;60603;52.548;13.420;2023-04-06T06:50:56;8.45;;;4.80;;
72573;SDS011;60603;52.548;13.420;2023-04-06T06:53:23;11.02;;;4.75;;
72573;SDS011;60603;52.548;13.420;2023-04-06T06:55:49;8.40;;;4.80;;
72573;SDS011;60603;52.548;13.420;2023-04-06T06:58:15;10.25;;;5.22;;
72573;SDS011;60603;52.548;13.420;2023-04-06T07:00:43;8.88;;;5.00;;
72573;SDS011;60603;52.548;13.420;2023-04-06T07:03:09;10.48;;;4.72;;
72573;SDS011;60603;52.548;13.420;2023-04-06T07:05:35;11.88;;;4.50;;
72573;SDS011;60603;52.548;13.420;2023-04-06T07:08:01;9.95;;;5.22;;
72573;SDS011;60603;52.548;13.420;2023-04-06T07:10:27;9.13;;;4.75;;
72573;SDS011;60603;52.548;13.420;2023-04-06T07:12:52;10.23;;;4.68;;
72573;SDS011;60603;52.548;13.420;2023-04-06T07:15:18;9.18;;;4.82;;
72573;SDS011;60603;52.548;13.420;2023-04-06T07:17:45;11.73;;;4.80;;
72573;SDS011;60603;52.548;13.420;2023-04-06T07:20:11;9.23;;;4.93;;
72573;SDS011;60603;52.548;13.420;2023-04-06T07:22:41;8.90;;;4.53;;
72573;SDS011;60603;52.548;13.420;2023-04-06T07:25:08;9.02;;;4.35;;
72573;SDS011;60603;52.548;13.420;2023-04-06T07:27:34;13.10;;;5.43;;
72573;SDS011;60603;52.548;13.420;2023-04-06T07:30:00;11.95;;;5.28;;
72573;SDS011;60603;52.548;13.420;2023-04-06T07:32:26;8.82;;;4.25;;
72573;SDS011;60603;52.548;13.420;2023-04-06T07:34:52;7.68;;;4.03;;
72573;SDS011;60603;52.548;13.420;2023-04-06T07:37:18;13.32;;;4.80;;
72573;SDS011;60603;52.548;13.420;2023-04-06T07:39:44;8.60;;;5.00;;
72573;SDS011;60603;52.548;13.420;2023-04-06T07:42:10;10.88;;;4.22;;
72573;SDS011;60603;52.548;13.420;2023-04-06T07:44:36;8.90;;;4.75;;
72573;SDS011;60603;52.548;13.420;2023-04-06T07:47:02;9.52;;;4.30;;
72573;SDS011;60603;52.548;13.420;2023-04-06T07:49:28;12.48;;;4.70;;
72573;SDS011;60603;52.548;13.420;2023-04-06T07:51:54;8.98;;;4.20;;
72573;SDS011;60603;52.548;13.420;2023-04-06T07:54:20;7.80;;;3.75;;
72573;SDS011;60603;52.548;13.420;2023-04-06T07:56:46;10.70;;;4.22;;
72573;SDS011;60603;52.548;13.420;2023-04-06T07:59:12;9.68;;;4.05;;
72573;SDS011;60603;52.548;13.420;2023-04-06T08:01:38;7.68;;;3.47;;
72573;SDS011;60603;52.548;13.420;2023-04-06T08:04:04;7.30;;;3.53;;
72573;SDS011;60603;52.548;13.420;2023-04-06T08:06:30;7.70;;;3.67;;
72573;SDS011;60603;52.548;13.420;2023-04-06T08:08:56;7.97;;;3.33;;
72573;SDS011;60603;52.548;13.420;2023-04-06T08:11:22;7.28;;;3.38;;
72573;SDS011;60603;52.548;13.420;2023-04-06T08:13:48;7.00;;;3.78;;
72573;SDS011;60603;52.548;13.420;2023-04-06T08:16:14;9.15;;;3.75;;
72573;SDS011;60603;52.548;13.420;2023-04-06T08:18:40;8.77;;;4.10;;
72573;SDS011;60603;52.548;13.420;2023-04-06T08:21:06;7.68;;;4.55;;
72573;SDS011;60603;52.548;13.420;2023-04-06T08:23:32;8.65;;;3.75;;
72573;SDS011;60603;52.548;13.420;2023-04-06T08:25:58;8.20;;;4.03;;
72573;SDS011;60603;52.548;13.420;2023-04-06T08:28:24;9.52;;;4.60;;
72573;SDS011;60603;52.548;13.420;2023-04-06T08:30:50;11.52;;;4.32;;
72573;SDS011;60603;52.548;13.420;2023-04-06T08:33:16;8.73;;;3.70;;
72573;SDS011;60603;52.548;13.420;2023-04-06T08:35:41;13.60;;;5.07;;
72573;SDS011;60603;52.548;13.420;2023-04-06T08:38:07;5.82;;;2.92;;
72573;SDS011;60603;52.548;13.420;2023-04-06T08:40:37;6.88;;;2.80;;
72573;SDS011;60603;52.548;13.420;2023-04-06T08:45:36;6.00;;;2.80;;
72573;SDS011;60603;52.548;13.420;2023-04-06T08:48:02;9.90;;;3.25;;
72573;SDS011;60603;52.548;13.420;2023-04-06T08:50:32;6.65;;;2.88;;
72573;SDS011;60603;52.548;13.420;2023-04-06T08:52:58;7.72;;;3.13;;
72573;SDS011;60603;52.548;13.420;2023-04-06T08:55:24;5.75;;;2.30;;
72573;SDS011;60603;52.548;13.420;2023-04-06T08:57:51;9.57;;;3.15;;
72573;SDS011;60603;52.548;13.420;2023-04-06T09:00:20;5.10;;;2.67;;
72573;SDS011;60603;52.548;13.420;2023-04-06T09:02:47;13.30;;;5.18;;
72573;SDS011;60603;52.548;13.420;2023-04-06T09:05:14;6.18;;;2.90;;
72573;SDS011;60603;52.548;13.420;2023-04-06T09:07:40;6.80;;;2.58;;
72573;SDS011;60603;52.548;13.420;2023-04-06T09:10:07;6.75;;;3.08;;
72573;SDS011;60603;52.548;13.420;2023-04-06T09:12:33;7.75;;;2.40;;
72573;SDS011;60603;52.548;13.420;2023-04-06T09:15:00;3.83;;;1.83;;
72573;SDS011;60603;52.548;13.420;2023-04-06T09:17:30;3.92;;;1.88;;
72573;SDS011;60603;52.548;13.420;2023-04-06T09:20:02;6.45;;;2.33;;
72573;SDS011;60603;52.548;13.420;2023-04-06T09:22:35;9.48;;;2.40;;
72573;SDS011;60603;52.548;13.420;2023-04-06T09:25:02;6.22;;;2.00;;
72573;SDS011;60603;52.548;13.420;2023-04-06T09:27:32;5.40;;;2.40;;
72573;SDS011;60603;52.548;13.420;2023-04-06T09:30:03;5.15;;;2.25;;
72573;SDS011;60603;52.548;13.420;2023-04-06T09:32:29;7.18;;;2.78;;
72573;SDS011;60603;52.548;13.420;2023-04-06T09:35:04;4.18;;;2.00;;
72573;SDS011;60603;52.548;13.420;2023-04-06T09:37:33;4.50;;;2.20;;
72573;SDS011;60603;52.548;13.420;2023-04-06T09:40:03;6.38;;;2.00;;
72573;SDS011;60603;52.548;13.420;2023-04-06T09:42:30;4.70;;;2.30;;
72573;SDS011;60603;52.548;13.420;2023-04-06T09:44:56;6.35;;;2.10;;
72573;SDS011;60603;52.548;13.420;2023-04-06T09:47:22;3.83;;;1.63;;
72573;SDS011;60603;52.548;13.420;2023-04-06T09:49:55;4.82;;;1.90;;
72573;SDS011;60603;52.548;13.420;2023-04-06T09:52:26;5.03;;;2.40;;
72573;SDS011;60603;52.548;13.420;2023-04-06T09:54:54;4.88;;;2.03;;
72573;SDS011;60603;52.548;13.420;2023-04-06T09:57:25;6.82;;;1.88;;
72573;SDS011;60603;52.548;13.420;2023-04-06T10:02:35;5.18;;;2.17;;
72573;SDS011;60603;52.548;13.420;2023-04-06T10:07:56;6.63;;;2.10;;
72573;SDS011;60603;52.548;13.420;2023-04-06T10:10:23;3.75;;;1.65;;
72573;SDS011;60603;52.548;13.420;2023-04-06T10:12:49;3.40;;;1.50;;
72573;SDS011;60603;52.548;13.420;2023-04-06T10:15:16;3.25;;;1.67;;
72573;SDS011;60603;52.548;13.420;2023-04-06T10:17:43;4.75;;;1.65;;
72573;SDS011;60603;52.548;13.420;2023-04-06T10:20:10;4.47;;;1.80;;
72573;SDS011;60603;52.548;13.420;2023-04-06T10:22:42;3.53;;;1.65;;
72573;SDS011;60603;52.548;13.420;2023-04-06T10:25:16;3.28;;;1.63;;
72573;SDS011;60603;52.548;13.420;2023-04-06T10:27:42;8.27;;;1.80;;
72573;SDS011;60603;52.548;13.420;2023-04-06T10:30:08;6.00;;;2.00;;
72573;SDS011;60603;52.548;13.420;2023-04-06T10:32:35;3.72;;;1.55;;
72573;SDS011;60603;52.548;13.420;2023-04-06T10:35:11;3.83;;;1.50;;
72573;SDS011;60603;52.548;13.420;2023-04-06T10:37:51;5.32;;;1.90;;
72573;SDS011;60603;52.548;13.420;2023-04-06T10:40:24;5.25;;;1.77;;
72573;SDS011;60603;52.548;13.420;2023-04-06T10:42:52;4.05;;;1.67;;
72573;SDS011;60603;52.548;13.420;2023-04-06T10:45:19;5.53;;;1.80;;
72573;SDS011;60603;52.548;13.420;2023-04-06T10:47:49;9.27;;;1.90;;
72573;SDS011;60603;52.548;13.420;2023-04-06T10:50:16;4.03;;;1.52;;
72573;SDS011;60603;52.548;13.420;2023-04-06T10:52:45;4.50;;;1.70;;
72573;SDS011;60603;52.548;13.420;2023-04-06T10:55:13;3.97;;;1.83;;
72573;SDS011;60603;52.548;13.420;2023-04-06T10:57:40;5.32;;;1.75;;
72573;SDS011;60603;52.548;13.420;2023-04-06T11:00:06;5.05;;;1.77;;
72573;SDS011;60603;52.548;13.420;2023-04-06T11:02:36;4.70;;;1.63;;
72573;SDS011;60603;52.548;13.420;2023-04-06T11:05:03;3.35;;;1.52;;
72573;SDS011;60603;52.548;13.420;2023-04-06T11:07:29;4.00;;;1.70;;
72573;SDS011;60603;52.548;13.420;2023-04-06T11:09:55;11.13;;;3.83;;
72573;SDS011;60603;52.548;13.420;2023-04-06T11:12:23;3.53;;;1.90;;
72573;SDS011;60603;52.548;13.420;2023-04-06T11:14:53;3.92;;;1.52;;
72573;SDS011;60603;52.548;13.420;2023-04-06T11:17:28;3.63;;;1.52;;
72573;SDS011;60603;52.548;13.420;2023-04-06T11:19:54;3.10;;;1.40;;
72573;SDS011;60603;52.548;13.420;2023-04-06T11:22:20;4.28;;;1.67;;
72573;SDS011;60603;52.548;13.420;2023-04-06T11:24:46;5.18;;;2.50;;
72573;SDS011;60603;52.548;13.420;2023-04-06T11:27:14;3.97;;;1.58;;
72573;SDS011;60603;52.548;13.420;2023-04-06T11:29:41;5.25;;;1.65;;
72573;SDS011;60603;52.548;13.420;2023-04-06T11:32:07;5.93;;;1.95;;
72573;SDS011;60603;52.548;13.420;2023-04-06T11:34:35;3.90;;;1.50;;
72573;SDS011;60603;52.548;13.420;2023-04-06T11:37:03;4.45;;;1.55;;
72573;SDS011;60603;52.548;13.420;2023-04-06T11:39:37;3.20;;;1.55;;
72573;SDS011;60603;52.548;13.420;2023-04-06T11:42:04;4.10;;;1.92;;
72573;SDS011;60603;52.548;13.420;2023-04-06T11:47:00;4.18;;;1.73;;
72573;SDS011;60603;52.548;13.420;2023-04-06T11:49:29;4.05;;;1.70;;
72573;SDS011;60603;52.548;13.420;2023-04-06T11:51:56;4.68;;;1.70;;
72573;SDS011;60603;52.548;13.420;2023-04-06T11:54:36;5.45;;;1.55;;
72573;SDS011;60603;52.548;13.420;2023-04-06T11:57:03;3.60;;;1.75;;
72573;SDS011;60603;52.548;13.420;2023-04-06T11:59:30;4.90;;;1.85;;
72573;SDS011;60603;52.548;13.420;2023-04-06T12:02:03;4.50;;;1.95;;
72573;SDS011;60603;52.548;13.420;2023-04-06T12:04:29;5.75;;;2.42;;
72573;SDS011;60603;52.548;13.420;2023-04-06T12:06:55;5.25;;;1.98;;
72573;SDS011;60603;52.548;13.420;2023-04-06T12:09:21;3.88;;;1.80;;
72573;SDS011;60603;52.548;13.420;2023-04-06T12:11:47;6.25;;;1.88;;
72573;SDS011;60603;52.548;13.420;2023-04-06T12:14:13;4.30;;;1.80;;
72573;SDS011;60603;52.548;13.420;2023-04-06T12:16:39;5.50;;;1.63;;
72573;SDS011;60603;52.548;13.420;2023-04-06T12:19:06;4.63;;;1.90;;
72573;SDS011;60603;52.548;13.420;2023-04-06T12:21:31;4.20;;;1.80;;
72573;SDS011;60603;52.548;13.420;2023-04-06T12:23:58;5.47;;;1.95;;
72573;SDS011;60603;52.548;13.420;2023-04-06T12:26:25;4.18;;;1.73;;
72573;SDS011;60603;52.548;13.420;2023-04-06T12:28:51;5.25;;;1.67;;
72573;SDS011;60603;52.548;13.420;2023-04-06T12:31:18;5.72;;;2.00;;
72573;SDS011;60603;52.548;13.420;2023-04-06T12:33:48;5.63;;;1.75;;
72573;SDS011;60603;52.548;13.420;2023-04-06T12:36:16;4.15;;;1.77;;
72573;SDS011;60603;52.548;13.420;2023-04-06T12:38:46;4.00;;;1.80;;
72573;SDS011;60603;52.548;13.420;2023-04-06T12:41:13;3.58;;;1.80;;
72573;SDS011;60603;52.548;13.420;2023-04-06T12:43:40;3.33;;;1.65;;
72573;SDS011;60603;52.548;13.420;2023-04-06T12:46:07;5.55;;;1.70;;
72573;SDS011;60603;52.548;13.420;2023-04-06T12:48:33;4.63;;;1.70;;
72573;SDS011;60603;52.548;13.420;2023-04-06T12:51:00;4.65;;;2.15;;
72573;SDS011;60603;52.548;13.420;2023-04-06T12:53:26;6.32;;;1.80;;
72573;SDS011;60603;52.548;13.420;2023-04-06T12:55:53;3.70;;;1.70;;
72573;SDS011;60603;52.548;13.420;2023-04-06T12:58:20;4.28;;;1.88;;
72573;SDS011;60603;52.548;13.420;2023-04-06T13:00:47;4.03;;;1.90;;
72573;SDS011;60603;52.548;13.420;2023-04-06T13:03:13;4.15;;;1.83;;
72573;SDS011;60603;52.548;13.420;2023-04-06T13:05:49;4.60;;;1.73;;
72573;SDS011;60603;52.548;13.420;2023-04-06T13:08:16;4.65;;;1.83;;
72573;SDS011;60603;52.548;13.420;2023-04-06T13:10:46;4.10;;;1.65;;
72573;SDS011;60603;52.548;13.420;2023-04-06T13:13:12;5.88;;;1.67;;
72573;SDS011;60603;52.548;13.420;2023-04-06T13:15:38;4.70;;;1.80;;
72573;SDS011;60603;52.548;13.420;2023-04-06T13:18:04;3.30;;;1.73;;
72573;SDS011;60603;52.548;13.420;2023-04-06T13:20:30;7.97;;;2.47;;
72573;SDS011;60603;52.548;13.420;2023-04-06T13:22:56;5.82;;;1.95;;
72573;SDS011;60603;52.548;13.420;2023-04-06T13:25:22;4.88;;;2.15;;
72573;SDS011;60603;52.548;13.420;2023-04-06T13:27:48;4.07;;;1.80;;
72573;SDS011;60603;52.548;13.420;2023-04-06T13:30:14;3.20;;;1.63;;
72573;SDS011;60603;52.548;13.420;2023-04-06T13:32:40;4.63;;;2.00;;
72573;SDS011;60603;52.548;13.420;2023-04-06T13:35:06;4.90;;;1.92;;
72573;SDS011;60603;52.548;13.420;2023-04-06T13:37:33;3.60;;;1.67;;
72573;SDS011;60603;52.548;13.420;2023-04-06T13:39:59;4.00;;;2.10;;
72573;SDS011;60603;52.548;13.420;2023-04-06T13:42:25;5.20;;;1.80;;
72573;SDS011;60603;52.548;13.420;2023-04-06T13:44:52;5.00;;;2.00;;
72573;SDS011;60603;52.548;13.420;2023-04-06T13:47:18;4.55;;;2.15;;
72573;SDS011;60603;52.548;13.420;2023-04-06T13:49:46;3.83;;;2.13;;
72573;SDS011;60603;52.548;13.420;2023-04-06T13:52:12;3.90;;;1.98;;
72573;SDS011;60603;52.548;13.420;2023-04-06T13:54:38;4.78;;;2.00;;
72573;SDS011;60603;52.548;13.420;2023-04-06T13:57:04;3.58;;;1.83;;
72573;SDS011;60603;52.548;13.420;2023-04-06T13:59:33;5.55;;;1.73;;
72573;SDS011;60603;52.548;13.420;2023-04-06T14:02:02;6.25;;;2.08;;
72573;SDS011;60603;52.548;13.420;2023-04-06T14:04:29;5.75;;;1.73;;
72573;SDS011;60603;52.548;13.420;2023-04-06T14:06:56;6.53;;;2.10;;
72573;SDS011;60603;52.548;13.420;2023-04-06T14:09:22;4.82;;;2.00;;
72573;SDS011;60603;52.548;13.420;2023-04-06T14:11:49;4.03;;;1.70;;
72573;SDS011;60603;52.548;13.420;2023-04-06T14:14:15;4.53;;;1.88;;
72573;SDS011;60603;52.548;13.420;2023-04-06T14:16:41;5.07;;;2.28;;
72573;SDS011;60603;52.548;13.420;2023-04-06T14:19:10;5.70;;;2.40;;
72573;SDS011;60603;52.548;13.420;2023-04-06T14:21:41;5.10;;;1.85;;
72573;SDS011;60603;52.548;13.420;2023-04-06T14:24:09;4.70;;;1.90;;
72573;SDS011;60603;52.548;13.420;2023-04-06T14:26:35;4.50;;;2.10;;
72573;SDS011;60603;52.548;13.420;2023-04-06T14:29:02;4.45;;;2.20;;
72573;SDS011;60603;52.548;13.420;2023-04-06T14:31:28;3.50;;;1.67;;
72573;SDS011;60603;52.548;13.420;2023-04-06T14:33:54;3.88;;;1.70;;
72573;SDS011;60603;52.548;13.420;2023-04-06T14:36:20;4.55;;;2.05;;
72573;SDS011;60603;52.548;13.420;2023-04-06T14:38:46;6.63;;;2.33;;